createdAt,value
2018-09-25T00:02:33.580Z,3.87
2018-09-25T00:05:07.812Z,2.93
2018-09-25T00:07:42.132Z,5.20
2018-09-25T00:10:16.346Z,2.87
2018-09-25T00:12:50.840Z,2.90
2018-09-25T00:15:25.091Z,2.70
2018-09-25T00:17:59.408Z,2.30
2018-09-25T00:20:33.668Z,2.50
2018-09-25T00:23:07.945Z,2.67
2018-09-25T00:25:42.243Z,2.50
2018-09-25T00:28:16.377Z,2.60
2018-09-25T00:30:50.571Z,2.67
2018-09-25T00:33:24.792Z,2.30
2018-09-25T00:35:59.089Z,2.40
2018-09-25T00:38:33.233Z,2.40
2018-09-25T00:41:07.329Z,2.40
2018-09-25T00:43:41.636Z,2.30
2018-09-25T00:46:15.938Z,2.00
2018-09-25T00:48:50.318Z,2.47
2018-09-25T00:51:24.440Z,2.60
2018-09-25T00:53:58.682Z,2.40
2018-09-25T00:56:32.882Z,2.67
2018-09-25T00:59:07.104Z,2.70
2018-09-25T01:01:41.315Z,2.73
2018-09-25T01:04:15.561Z,2.50
2018-09-25T01:06:49.663Z,2.27
2018-09-25T01:09:23.964Z,2.20
2018-09-25T01:11:58.193Z,2.20
2018-09-25T01:14:32.404Z,2.17
2018-09-25T01:17:06.635Z,2.40
2018-09-25T01:19:40.807Z,2.17
2018-09-25T01:22:14.996Z,2.00
2018-09-25T01:24:49.370Z,2.23
2018-09-25T01:27:23.481Z,2.23
2018-09-25T01:29:57.797Z,2.50
2018-09-25T01:32:31.996Z,2.47
2018-09-25T01:35:06.185Z,2.40
2018-09-25T01:37:40.470Z,2.03
2018-09-25T01:40:14.740Z,2.87
2018-09-25T01:42:48.967Z,2.17
2018-09-25T01:45:23.293Z,2.60
2018-09-25T01:47:57.505Z,2.20
2018-09-25T01:50:31.800Z,2.37
2018-09-25T01:53:06.105Z,2.00
2018-09-25T01:55:40.285Z,1.93
2018-09-25T01:58:14.404Z,2.20
2018-09-25T02:00:49.088Z,2.00
2018-09-25T02:03:23.496Z,2.03
2018-09-25T02:05:57.688Z,2.30
2018-09-25T02:08:31.679Z,2.67
2018-09-25T02:11:05.740Z,3.40
2018-09-25T02:13:40.012Z,3.60
2018-09-25T02:16:14.201Z,4.03
2018-09-25T02:18:48.456Z,4.40
2018-09-25T02:21:22.590Z,3.90
2018-09-25T02:23:56.761Z,3.57
2018-09-25T02:26:31.040Z,4.17
2018-09-25T02:29:05.279Z,4.20
2018-09-25T02:31:39.508Z,4.10
2018-09-25T02:34:13.821Z,3.50
2018-09-25T02:36:48.153Z,4.13
2018-09-25T02:39:22.470Z,3.70
2018-09-25T02:41:56.726Z,3.80
2018-09-25T02:44:30.976Z,3.40
2018-09-25T02:47:05.101Z,2.97
2018-09-25T02:49:39.411Z,3.17
2018-09-25T02:52:13.679Z,2.80
2018-09-25T02:54:47.930Z,3.30
2018-09-25T02:57:22.149Z,3.20
2018-09-25T02:59:56.344Z,3.57
2018-09-25T03:02:30.660Z,3.00
2018-09-25T03:05:04.959Z,2.70
2018-09-25T03:07:39.240Z,2.47
2018-09-25T03:10:13.538Z,2.97
2018-09-25T03:12:47.749Z,2.80
2018-09-25T03:15:21.867Z,2.90
2018-09-25T03:17:56.058Z,3.20
2018-09-25T03:20:30.236Z,2.47
2018-09-25T03:23:04.485Z,2.73
2018-09-25T03:25:38.739Z,2.27
2018-09-25T03:28:12.884Z,2.50
2018-09-25T03:30:47.100Z,2.50
2018-09-25T03:33:21.352Z,2.37
2018-09-25T03:35:55.583Z,2.77
2018-09-25T03:38:29.800Z,4.57
2018-09-25T03:41:03.987Z,4.83
2018-09-25T03:43:38.076Z,3.57
2018-09-25T03:46:12.286Z,3.63
2018-09-25T03:48:46.562Z,3.50
2018-09-25T03:51:20.767Z,3.10
2018-09-25T03:53:54.993Z,3.73
2018-09-25T03:56:29.338Z,3.10
2018-09-25T03:59:03.490Z,3.27
2018-09-25T04:01:37.870Z,3.90
2018-09-25T04:04:12.144Z,3.50
2018-09-25T04:06:46.492Z,2.97
2018-09-25T04:09:20.759Z,3.80
2018-09-25T04:11:55.015Z,3.27
2018-09-25T04:14:29.320Z,4.50
2018-09-25T04:17:03.534Z,3.37
2018-09-25T04:19:37.969Z,3.30
2018-09-25T04:22:12.133Z,2.87
2018-09-25T04:24:46.397Z,2.93
2018-09-25T04:27:20.548Z,2.60
2018-09-25T04:29:54.711Z,2.83
2018-09-25T04:32:28.943Z,3.20
2018-09-25T04:35:03.203Z,3.77
2018-09-25T04:37:37.416Z,3.87
2018-09-25T04:40:11.912Z,3.33
2018-09-25T04:42:46.164Z,3.30
2018-09-25T04:45:20.357Z,3.20
2018-09-25T04:47:54.619Z,3.30
2018-09-25T04:50:28.800Z,2.93
2018-09-25T04:53:02.875Z,3.23
2018-09-25T04:55:37.106Z,3.40
2018-09-25T04:58:11.793Z,3.00
2018-09-25T05:00:46.066Z,3.30
2018-09-25T05:03:20.161Z,2.80
2018-09-25T05:05:54.264Z,3.00
2018-09-25T05:08:28.328Z,2.83
2018-09-25T05:11:02.665Z,3.10
2018-09-25T05:13:36.895Z,3.40
2018-09-25T05:16:11.069Z,2.87
2018-09-25T05:18:45.234Z,3.43
2018-09-25T05:21:19.405Z,2.90
2018-09-25T05:23:55.397Z,3.50
2018-09-25T05:26:29.749Z,3.23
2018-09-25T05:29:03.980Z,3.17
2018-09-25T05:31:38.358Z,4.23
2018-09-25T05:47:41.485Z,7.87
2018-09-25T05:50:15.740Z,10.57
2018-09-25T05:52:49.989Z,9.13
2018-09-25T05:55:26.702Z,6.10
2018-09-25T05:58:00.885Z,7.13
2018-09-25T06:00:36.100Z,7.83
2018-09-25T06:03:10.500Z,5.30
2018-09-25T06:05:47.791Z,6.23
2018-09-25T06:08:24.247Z,7.03
2018-09-25T06:11:05.223Z,7.03
2018-09-25T06:13:39.420Z,6.83
2018-09-25T06:16:13.642Z,6.30
2018-09-25T06:18:47.871Z,5.53
2018-09-25T06:21:21.980Z,9.43
2018-09-25T06:23:56.209Z,6.80
2018-09-25T06:26:30.468Z,6.63
2018-09-25T06:29:04.789Z,7.83
2018-09-25T06:31:39.012Z,7.20
2018-09-25T06:34:13.248Z,7.30
2018-09-25T06:36:47.544Z,5.93
2018-09-25T06:39:22.225Z,5.53
2018-09-25T06:41:56.279Z,5.83
2018-09-25T06:44:30.480Z,4.67
2018-09-25T06:47:04.897Z,8.73
2018-09-25T06:49:39.180Z,4.60
2018-09-25T06:52:13.432Z,4.00
2018-09-25T06:54:47.636Z,4.30
2018-09-25T06:57:21.934Z,3.80
2018-09-25T06:59:56.233Z,3.97
2018-09-25T07:02:30.588Z,3.70
2018-09-25T07:05:04.911Z,3.20
2018-09-25T07:07:39.064Z,3.80
2018-09-25T07:10:13.457Z,3.80
2018-09-25T07:12:47.544Z,3.17
2018-09-25T07:15:21.823Z,2.80
2018-09-25T07:17:56.191Z,3.20
2018-09-25T07:20:30.363Z,2.83
2018-09-25T07:23:04.511Z,2.77
2018-09-25T07:25:38.727Z,3.60
2018-09-25T07:28:12.988Z,4.77
2018-09-25T07:30:47.160Z,2.50
2018-09-25T07:33:21.457Z,2.80
2018-09-25T07:35:55.615Z,2.83
2018-09-25T07:38:29.909Z,2.50
2018-09-25T07:41:04.174Z,2.77
2018-09-25T07:43:38.327Z,2.83
2018-09-25T07:46:12.641Z,2.43
2018-09-25T07:48:46.958Z,3.07
2018-09-25T07:51:21.244Z,2.70
2018-09-25T07:53:55.361Z,3.00
2018-09-25T07:56:29.488Z,2.57
2018-09-25T07:59:03.422Z,2.27
2018-09-25T08:01:37.488Z,3.27
2018-09-25T08:04:11.704Z,4.27
2018-09-25T08:06:45.949Z,2.83
2018-09-25T08:09:20.132Z,3.20
2018-09-25T08:11:54.276Z,3.20
2018-09-25T08:14:28.681Z,2.40
2018-09-25T08:17:02.967Z,2.60
2018-09-25T08:19:37.324Z,2.47
2018-09-25T08:22:11.650Z,3.30
2018-09-25T08:24:45.949Z,3.50
2018-09-25T08:27:20.096Z,2.80
2018-09-25T08:29:54.380Z,3.03
2018-09-25T08:32:28.600Z,2.53
2018-09-25T08:35:02.956Z,3.13
2018-09-25T08:37:37.108Z,2.30
2018-09-25T08:40:11.457Z,3.63
2018-09-25T08:42:45.561Z,3.33
2018-09-25T08:45:19.770Z,3.00
2018-09-25T08:47:53.982Z,2.20
2018-09-25T08:50:28.294Z,3.10
2018-09-25T08:53:02.582Z,4.13
2018-09-25T08:55:36.755Z,3.50
2018-09-25T08:58:11.297Z,3.17
2018-09-25T09:00:45.581Z,2.40
2018-09-25T09:03:19.800Z,2.97
2018-09-25T09:05:54.111Z,2.93
2018-09-25T09:08:28.371Z,2.43
2018-09-25T09:11:02.688Z,2.97
2018-09-25T09:13:36.839Z,2.17
2018-09-25T09:16:11.090Z,2.27
2018-09-25T09:18:45.321Z,2.17
2018-09-25T09:21:19.614Z,3.63
2018-09-25T09:23:53.888Z,2.33
2018-09-25T09:26:28.222Z,2.00
2018-09-25T09:29:02.452Z,2.10
2018-09-25T09:31:36.493Z,2.57
2018-09-25T09:34:10.619Z,3.00
2018-09-25T09:36:44.639Z,2.47
2018-09-25T09:39:18.795Z,2.23
2018-09-25T09:41:53.174Z,2.27
2018-09-25T09:44:27.309Z,1.80
2018-09-25T09:47:01.519Z,2.37
2018-09-25T09:49:35.756Z,2.00
2018-09-25T09:52:09.866Z,2.77
2018-09-25T09:54:44.221Z,2.47
2018-09-25T09:57:18.504Z,3.27
2018-09-25T09:59:52.696Z,2.70
2018-09-25T10:02:26.916Z,2.40
2018-09-25T10:05:01.250Z,2.07
2018-09-25T10:07:35.468Z,2.60
2018-09-25T10:10:11.125Z,2.07
2018-09-25T10:12:45.319Z,2.10
2018-09-25T10:15:19.523Z,2.50
2018-09-25T10:17:53.753Z,2.20
2018-09-25T10:20:27.983Z,2.10
2018-09-25T10:23:02.182Z,2.17
2018-09-25T10:25:36.418Z,2.33
2018-09-25T10:28:10.736Z,2.57
2018-09-25T10:30:45.078Z,1.60
2018-09-25T10:33:19.371Z,2.57
2018-09-25T10:35:53.593Z,2.53
2018-09-25T10:38:27.761Z,2.40
2018-09-25T10:41:01.977Z,2.30
2018-09-25T10:43:36.097Z,1.67
2018-09-25T10:46:10.401Z,1.70
2018-09-25T10:48:44.668Z,2.00
2018-09-25T10:51:19.036Z,2.20
2018-09-25T10:53:53.436Z,2.03
2018-09-25T10:56:27.743Z,1.50
2018-09-25T10:59:02.035Z,1.43
2018-09-25T11:01:36.299Z,1.67
2018-09-25T11:04:10.610Z,1.70
2018-09-25T11:06:44.727Z,1.53
2018-09-25T11:09:19.016Z,1.67
2018-09-25T11:11:53.237Z,2.60
2018-09-25T11:14:27.512Z,1.60
2018-09-25T11:17:01.785Z,1.73
2018-09-25T11:19:36.117Z,1.23
2018-09-25T11:22:10.432Z,1.60
2018-09-25T11:24:44.743Z,1.67
2018-09-25T11:27:18.929Z,1.67
2018-09-25T11:29:53.171Z,1.43
2018-09-25T11:32:27.486Z,1.50
2018-09-25T11:35:01.805Z,1.67
2018-09-25T11:37:36.104Z,1.93
2018-09-25T11:40:10.500Z,1.93
2018-09-25T11:42:44.876Z,1.90
2018-09-25T11:45:19.044Z,1.67
2018-09-25T11:47:53.190Z,1.17
2018-09-25T11:50:27.347Z,1.77
2018-09-25T11:53:02.407Z,1.40
2018-09-25T11:55:41.545Z,1.17
2018-09-25T11:58:15.839Z,1.90
2018-09-25T12:00:50.155Z,1.63
2018-09-25T12:03:25.530Z,1.70
2018-09-25T12:06:00.116Z,1.00
2018-09-25T12:08:34.376Z,1.23
2018-09-25T12:11:08.712Z,1.93
2018-09-25T12:13:43.535Z,1.67
2018-09-25T12:16:18.528Z,1.30
2018-09-25T12:18:52.834Z,1.33
2018-09-25T12:21:44.296Z,1.43
2018-09-25T12:24:18.560Z,1.50
2018-09-25T12:26:53.332Z,1.80
2018-09-25T12:29:27.537Z,1.40
2018-09-25T12:32:01.893Z,1.57
2018-09-25T12:34:36.070Z,1.37
2018-09-25T12:37:10.396Z,1.50
2018-09-25T12:39:44.661Z,1.10
2018-09-25T12:42:18.787Z,1.73
2018-09-25T12:44:53.606Z,1.63
2018-09-25T12:47:27.989Z,1.20
2018-09-25T12:50:02.372Z,1.90
2018-09-25T12:52:36.739Z,1.43
2018-09-25T12:55:10.983Z,1.23
2018-09-25T12:57:45.248Z,1.57
2018-09-25T13:00:19.457Z,1.13
2018-09-25T13:02:53.769Z,1.67
2018-09-25T13:05:29.486Z,1.50
2018-09-25T13:08:03.798Z,1.30
2018-09-25T13:10:38.040Z,1.30
2018-09-25T13:13:12.280Z,1.43
2018-09-25T13:15:46.596Z,2.00
2018-09-25T13:18:20.946Z,1.57
2018-09-25T13:20:56.162Z,1.50
2018-09-25T13:23:30.743Z,1.30
2018-09-25T13:26:04.992Z,1.50
2018-09-25T13:28:39.213Z,1.20
2018-09-25T13:31:13.505Z,1.40
2018-09-25T13:33:47.570Z,1.77
2018-09-25T13:36:21.789Z,1.67
2018-09-25T13:38:56.074Z,1.63
2018-09-25T13:41:30.388Z,1.40
2018-09-25T13:44:04.697Z,1.30
2018-09-25T13:46:38.895Z,1.60
2018-09-25T13:49:13.191Z,1.60
2018-09-25T13:51:47.509Z,1.90
2018-09-25T13:54:21.758Z,2.17
2018-09-25T13:56:56.063Z,2.03
2018-09-25T13:59:30.424Z,1.77
2018-09-25T14:02:04.707Z,1.50
2018-09-25T14:04:38.688Z,2.87
2018-09-25T14:07:12.778Z,2.27
2018-09-25T14:09:46.588Z,2.23
2018-09-25T14:12:20.595Z,1.90
2018-09-25T14:14:54.469Z,24.03
2018-09-25T14:17:28.355Z,25.73
2018-09-25T14:20:02.393Z,11.60
2018-09-25T14:22:36.257Z,36.30
2018-09-25T14:25:10.205Z,26.23
2018-09-25T14:27:44.069Z,15.47
2018-09-25T14:30:17.972Z,8.20
2018-09-25T14:32:51.955Z,5.87
2018-09-25T14:35:25.793Z,21.13
2018-09-25T14:37:59.615Z,20.53
2018-09-25T14:40:33.620Z,22.77
2018-09-25T14:43:07.708Z,4.87
2018-09-25T14:45:41.635Z,2.90
2018-09-25T14:48:15.704Z,2.03
2018-09-25T14:50:50.016Z,1.30
2018-09-25T14:53:25.084Z,1.87
2018-09-25T14:55:59.229Z,1.70
2018-09-25T14:58:33.753Z,1.57
2018-09-25T15:01:07.960Z,1.50
2018-09-25T15:03:42.309Z,1.50
2018-09-25T15:06:16.580Z,1.23
2018-09-25T15:08:50.911Z,1.30
2018-09-25T15:11:25.215Z,1.53
2018-09-25T15:13:59.600Z,1.70
2018-09-25T15:16:33.780Z,1.57
2018-09-25T15:19:08.022Z,1.10
2018-09-25T15:21:42.429Z,1.50
2018-09-25T15:24:16.554Z,1.23
2018-09-25T15:26:51.643Z,1.40
2018-09-25T15:29:25.834Z,1.40
2018-09-25T15:32:00.200Z,1.47
2018-09-25T15:34:34.451Z,2.33
2018-09-25T15:37:08.659Z,1.50
2018-09-25T15:39:42.975Z,2.23
2018-09-25T15:42:17.260Z,7.23
2018-09-25T15:44:51.403Z,8.63
2018-09-25T15:47:25.812Z,5.83
2018-09-25T15:50:00.119Z,19.50
2018-09-25T15:52:34.380Z,15.30
2018-09-25T15:55:08.647Z,15.80
2018-09-25T15:57:42.885Z,21.00
2018-09-25T16:00:17.234Z,15.57
2018-09-25T16:02:51.509Z,13.53
2018-09-25T16:05:26.570Z,9.10
2018-09-25T16:08:00.823Z,20.50
2018-09-25T16:10:35.090Z,14.70
2018-09-25T16:13:09.404Z,15.97
2018-09-25T16:15:43.672Z,13.73
2018-09-25T16:18:17.994Z,23.63
2018-09-25T16:20:52.193Z,14.33
2018-09-25T16:23:26.481Z,14.23
2018-09-25T16:26:00.825Z,20.27
2018-09-25T16:28:35.100Z,14.53
2018-09-25T16:31:09.374Z,9.27
2018-09-25T16:33:43.660Z,6.33
2018-09-25T16:36:17.887Z,11.63
2018-09-25T16:38:52.021Z,13.10
2018-09-25T16:41:26.227Z,13.90
2018-09-25T16:44:00.572Z,7.57
2018-09-25T16:46:34.835Z,5.73
2018-09-25T16:49:09.164Z,8.67
2018-09-25T16:51:43.416Z,13.57
2018-09-25T16:54:17.675Z,8.20
2018-09-25T16:56:51.947Z,4.33
2018-09-25T16:59:26.569Z,2.50
2018-09-25T17:02:00.884Z,2.63
2018-09-25T17:04:35.131Z,3.27
2018-09-25T17:07:09.291Z,3.30
2018-09-25T17:09:43.453Z,2.63
2018-09-25T17:12:17.559Z,2.93
2018-09-25T17:14:51.872Z,3.47
2018-09-25T17:17:26.164Z,2.90
2018-09-25T17:20:00.504Z,2.97
2018-09-25T17:22:34.603Z,3.67
2018-09-25T17:25:09.012Z,5.17
2018-09-25T17:27:43.123Z,6.10
2018-09-25T17:30:17.254Z,3.90
2018-09-25T17:32:51.526Z,10.80
2018-09-25T17:35:25.918Z,4.60
2018-09-25T17:38:00.156Z,4.50
2018-09-25T17:40:35.413Z,4.00
2018-09-25T17:43:09.715Z,5.07
2018-09-25T17:45:43.848Z,7.83
2018-09-25T17:48:18.177Z,4.60
2018-09-25T17:50:52.254Z,5.23
2018-09-25T17:53:26.429Z,5.13
2018-09-25T17:56:00.621Z,5.70
2018-09-25T17:58:34.852Z,3.13
2018-09-25T18:01:09.183Z,4.20
2018-09-25T18:03:43.516Z,4.60
2018-09-25T18:06:17.741Z,2.33
2018-09-25T18:08:52.047Z,3.47
2018-09-25T18:11:26.314Z,3.77
2018-09-25T18:14:00.581Z,4.43
2018-09-25T18:16:34.869Z,3.43
2018-09-25T18:19:09.216Z,4.30
2018-09-25T18:21:43.439Z,5.13
2018-09-25T18:24:19.336Z,2.70
2018-09-25T18:26:53.544Z,2.90
2018-09-25T18:29:28.324Z,2.67
2018-09-25T18:32:03.031Z,2.80
2018-09-25T18:34:37.386Z,2.97
2018-09-25T18:37:11.951Z,5.20
2018-09-25T18:39:46.244Z,3.70
2018-09-25T18:42:20.491Z,2.83
2018-09-25T18:44:54.683Z,5.33
2018-09-25T18:47:29.011Z,4.60
2018-09-25T18:50:03.176Z,4.27
2018-09-25T18:52:37.398Z,2.90
2018-09-25T18:55:11.514Z,3.93
2018-09-25T18:57:45.838Z,5.33
2018-09-25T19:00:20.072Z,3.43
2018-09-25T19:02:54.380Z,3.80
2018-09-25T19:05:28.511Z,1.80
2018-09-25T19:08:02.685Z,4.07
2018-09-25T19:10:36.873Z,1.93
2018-09-25T19:13:11.188Z,2.83
2018-09-25T19:15:45.419Z,2.53
2018-09-25T19:18:19.600Z,2.67
2018-09-25T19:20:53.911Z,4.73
2018-09-25T19:23:28.047Z,2.60
2018-09-25T19:26:02.289Z,3.07
2018-09-25T19:28:36.405Z,3.33
2018-09-25T19:31:10.718Z,2.53
2018-09-25T19:33:45.037Z,2.40
2018-09-25T19:36:19.346Z,2.90
2018-09-25T19:38:53.478Z,2.27
2018-09-25T19:41:27.691Z,3.00
2018-09-25T19:44:01.850Z,3.07
2018-09-25T19:46:36.031Z,3.00
2018-09-25T19:49:11.139Z,2.27
2018-09-25T19:52:48.811Z,2.87
2018-09-25T19:55:23.965Z,2.10
2018-09-25T19:57:58.205Z,3.07
2018-09-25T20:00:32.278Z,2.50
2018-09-25T20:03:06.534Z,2.90
2018-09-25T20:05:40.800Z,2.27
2018-09-25T20:08:15.127Z,2.53
2018-09-25T20:10:49.324Z,2.20
2018-09-25T20:13:23.619Z,2.30
2018-09-25T20:15:57.860Z,2.90
2018-09-25T20:18:32.156Z,3.57
2018-09-25T20:21:06.485Z,2.60
2018-09-25T20:23:40.878Z,3.50
2018-09-25T20:26:15.155Z,2.80
2018-09-25T20:28:49.380Z,1.80
2018-09-25T20:31:23.547Z,2.07
2018-09-25T20:33:57.827Z,3.33
2018-09-25T20:36:32.111Z,2.30
2018-09-25T20:39:06.427Z,2.50
2018-09-25T20:41:40.608Z,2.83
2018-09-25T20:44:15.023Z,2.07
2018-09-25T20:46:49.195Z,2.80
2018-09-25T20:49:23.516Z,3.33
2018-09-25T20:51:57.804Z,3.80
2018-09-25T20:54:32.175Z,2.60
2018-09-25T20:57:06.464Z,2.30
2018-09-25T20:59:40.794Z,3.40
2018-09-25T21:02:15.082Z,5.70
2018-09-25T21:04:50.370Z,3.10
2018-09-25T21:07:24.570Z,2.70
2018-09-25T21:09:58.898Z,3.00
2018-09-25T21:12:33.209Z,2.47
2018-09-25T21:15:07.589Z,4.20
2018-09-25T21:17:41.958Z,3.20
2018-09-25T21:20:17.259Z,3.30
2018-09-25T21:22:51.487Z,2.90
2018-09-25T21:25:25.789Z,3.27
2018-09-25T21:28:00.055Z,3.47
2018-09-25T21:30:34.320Z,3.47
2018-09-25T21:33:08.662Z,3.43
2018-09-25T21:35:42.910Z,3.10
2018-09-25T21:38:17.180Z,2.73
2018-09-25T21:40:52.156Z,4.77
2018-09-25T21:43:26.407Z,3.73
2018-09-25T21:46:01.652Z,3.17
2018-09-25T21:48:35.814Z,2.77
2018-09-25T21:51:10.193Z,4.00
2018-09-25T21:53:44.320Z,4.87
2018-09-25T21:56:18.515Z,8.20
2018-09-25T21:58:52.859Z,6.73
2018-09-25T22:01:26.964Z,13.13
2018-09-25T22:04:01.299Z,20.00
2018-09-25T22:06:35.587Z,15.47
2018-09-25T22:09:12.213Z,12.17
2018-09-25T22:11:46.561Z,5.93
2018-09-25T22:14:20.814Z,5.43
2018-09-25T22:16:55.103Z,4.37
2018-09-25T22:19:29.422Z,4.73
2018-09-25T22:22:03.880Z,4.40
2018-09-25T22:24:38.062Z,9.17
2018-09-25T22:27:12.524Z,7.10
2018-09-25T22:29:47.033Z,5.20
2018-09-25T22:32:21.192Z,5.93
2018-09-25T22:34:55.562Z,3.67
2018-09-25T22:37:29.587Z,3.50
2018-09-25T22:40:04.060Z,2.80
2018-09-25T22:42:38.250Z,2.53
2018-09-25T22:45:12.489Z,3.67
2018-09-25T22:47:46.820Z,4.07
2018-09-25T22:50:21.643Z,2.57
2018-09-25T22:52:55.898Z,2.80
2018-09-25T22:55:30.214Z,4.33
2018-09-25T22:58:04.384Z,3.97
2018-09-25T23:00:38.669Z,3.03
2018-09-25T23:03:12.914Z,3.40
2018-09-25T23:05:47.212Z,4.90
2018-09-25T23:08:21.331Z,5.07
2018-09-25T23:10:55.619Z,5.13
2018-09-25T23:13:30.932Z,4.67
2018-09-25T23:16:05.248Z,4.13
2018-09-25T23:18:39.440Z,2.90
2018-09-25T23:21:13.672Z,3.23
2018-09-25T23:23:47.968Z,3.33
2018-09-25T23:26:22.105Z,2.57
2018-09-25T23:28:56.293Z,3.40
2018-09-25T23:31:30.594Z,3.40
2018-09-25T23:34:04.828Z,3.37
2018-09-25T23:36:39.055Z,3.10
2018-09-25T23:40:15.100Z,3.10
2018-09-25T23:42:57.873Z,3.07
2018-09-25T23:45:33.192Z,3.90
2018-09-25T23:48:07.385Z,2.70
2018-09-25T23:50:44.304Z,2.30
2018-09-25T23:53:17.958Z,6.93
2018-09-25T23:56:49.757Z,4.30
2018-09-25T23:59:23.260Z,2.70
